createdAt,value
2018-07-17T00:00:52.994Z,7.60
2018-07-17T00:03:23.833Z,7.20
2018-07-17T00:05:54.612Z,7.87
2018-07-17T00:08:25.072Z,7.97
2018-07-17T00:10:55.848Z,7.80
2018-07-17T00:13:26.808Z,7.37
2018-07-17T00:15:57.164Z,7.50
2018-07-17T00:18:28.048Z,7.33
2018-07-17T00:20:58.798Z,7.93
2018-07-17T00:23:29.272Z,7.70
2018-07-17T00:25:59.982Z,8.00
2018-07-17T00:28:30.867Z,7.77
2018-07-17T00:31:02.023Z,7.87
2018-07-17T00:33:33.029Z,8.17
2018-07-17T00:36:04.230Z,8.27
2018-07-17T00:38:35.263Z,8.30
2018-07-17T00:41:06.211Z,8.47
2018-07-17T00:43:37.136Z,7.57
2018-07-17T00:46:07.961Z,7.80
2018-07-17T00:48:38.932Z,7.70
2018-07-17T00:51:09.981Z,8.03
2018-07-17T00:53:40.905Z,7.73
2018-07-17T00:56:11.892Z,7.27
2018-07-17T00:58:42.818Z,7.90
2018-07-17T01:01:18.728Z,8.37
2018-07-17T01:03:54.545Z,8.17
2018-07-17T01:06:30.640Z,8.23
2018-07-17T01:09:06.547Z,7.70
2018-07-17T01:11:42.472Z,7.77
2018-07-17T01:14:16.936Z,8.20
2018-07-17T01:16:47.865Z,7.93
2018-07-17T01:19:18.896Z,8.40
2018-07-17T01:21:49.878Z,8.17
2018-07-17T01:24:20.820Z,7.77
2018-07-17T01:26:51.928Z,8.10
2018-07-17T01:29:22.729Z,8.00
2018-07-17T01:31:53.908Z,7.83
2018-07-17T01:34:25.049Z,7.90
2018-07-17T01:36:56.290Z,7.57
2018-07-17T01:39:27.354Z,7.70
2018-07-17T01:41:58.167Z,7.33
2018-07-17T01:44:29.127Z,7.50
2018-07-17T01:47:00.119Z,7.67
2018-07-17T01:49:31.192Z,7.47
2018-07-17T01:52:01.991Z,7.43
2018-07-17T01:54:33.150Z,8.10
2018-07-17T01:57:04.320Z,8.23
2018-07-17T01:59:35.282Z,7.93
2018-07-17T02:02:06.247Z,7.70
2018-07-17T02:04:37.227Z,8.27
2018-07-17T02:07:08.337Z,7.63
2018-07-17T02:09:39.217Z,7.63
2018-07-17T02:12:10.164Z,7.23
2018-07-17T02:14:41.317Z,7.90
2018-07-17T02:17:12.424Z,7.30
2018-07-17T02:19:42.765Z,7.83
2018-07-17T02:22:13.543Z,7.87
2018-07-17T02:24:44.848Z,8.13
2018-07-17T02:27:15.794Z,8.03
2018-07-17T02:29:46.928Z,7.90
2018-07-17T02:32:18.213Z,9.20
2018-07-17T02:34:49.202Z,8.20
2018-07-17T02:37:20.122Z,7.90
2018-07-17T02:39:51.315Z,7.73
2018-07-17T02:42:22.271Z,8.40
2018-07-17T02:44:53.370Z,9.03
2018-07-17T02:47:24.459Z,8.93
2018-07-17T02:49:55.498Z,8.70
2018-07-17T02:52:26.318Z,8.83
2018-07-17T02:54:57.301Z,8.47
2018-07-17T02:57:28.103Z,9.10
2018-07-17T02:59:59.214Z,8.87
2018-07-17T03:02:30.239Z,9.70
2018-07-17T03:05:01.399Z,9.63
2018-07-17T03:07:32.495Z,9.83
2018-07-17T03:10:03.615Z,10.17
2018-07-17T03:12:34.632Z,9.37
2018-07-17T03:15:05.843Z,9.17
2018-07-17T03:17:36.815Z,9.33
2018-07-17T03:20:07.978Z,9.00
2018-07-17T03:22:38.848Z,9.40
2018-07-17T03:25:10.188Z,9.57
2018-07-17T03:27:46.661Z,9.40
2018-07-17T03:30:17.747Z,9.30
2018-07-17T03:32:48.798Z,8.90
2018-07-17T03:35:19.932Z,9.03
2018-07-17T03:37:50.949Z,8.80
2018-07-17T03:40:22.123Z,9.03
2018-07-17T03:42:53.416Z,8.47
2018-07-17T03:45:24.315Z,8.47
2018-07-17T03:47:55.242Z,8.40
2018-07-17T03:50:26.075Z,8.43
2018-07-17T03:52:56.967Z,8.50
2018-07-17T03:55:27.945Z,8.10
2018-07-17T03:57:59.215Z,8.20
2018-07-17T04:00:30.455Z,8.40
2018-07-17T04:03:01.485Z,8.10
2018-07-17T04:05:32.260Z,7.97
2018-07-17T04:08:03.022Z,8.27
2018-07-17T04:10:34.190Z,9.13
2018-07-17T04:13:09.360Z,9.10
2018-07-17T04:15:40.241Z,8.50
2018-07-17T04:18:11.442Z,9.17
2018-07-17T04:20:42.316Z,8.63
2018-07-17T04:23:13.390Z,9.13
2018-07-17T04:25:44.303Z,8.17
2018-07-17T04:28:15.431Z,8.60
2018-07-17T04:30:46.706Z,8.57
2018-07-17T04:33:17.999Z,8.30
2018-07-17T04:35:49.121Z,8.43
2018-07-17T04:38:20.262Z,8.60
2018-07-17T04:40:51.490Z,8.70
2018-07-17T04:43:22.615Z,8.47
2018-07-17T04:45:53.714Z,8.93
2018-07-17T04:48:27.317Z,8.27
2018-07-17T04:50:58.655Z,8.23
2018-07-17T04:53:29.840Z,8.00
2018-07-17T04:56:00.886Z,8.00
2018-07-17T04:58:32.342Z,8.30
2018-07-17T05:01:03.404Z,7.90
2018-07-17T05:03:34.751Z,7.90
2018-07-17T05:06:06.078Z,8.33
2018-07-17T05:08:36.839Z,7.50
2018-07-17T05:11:08.056Z,7.20
2018-07-17T05:13:38.698Z,7.77
2018-07-17T05:16:09.734Z,7.20
2018-07-17T05:18:42.083Z,8.20
2018-07-17T05:21:13.422Z,8.97
2018-07-17T05:23:44.700Z,8.90
2018-07-17T05:26:15.921Z,7.93
2018-07-17T05:28:47.399Z,8.07
2018-07-17T05:31:18.408Z,9.17
2018-07-17T05:33:50.570Z,8.80
2018-07-17T05:36:21.829Z,8.70
2018-07-17T05:38:52.911Z,9.47
2018-07-17T05:41:24.128Z,9.03
2018-07-17T05:43:55.298Z,11.13
2018-07-17T05:46:27.789Z,10.73
2018-07-17T05:48:59.038Z,9.53
2018-07-17T05:51:30.576Z,10.73
2018-07-17T05:54:02.570Z,9.97
2018-07-17T05:56:34.266Z,10.43
2018-07-17T05:59:05.458Z,10.63
2018-07-17T06:01:36.485Z,11.10
2018-07-17T06:04:06.960Z,11.33
2018-07-17T06:06:37.950Z,10.37
2018-07-17T06:09:10.410Z,10.27
2018-07-17T06:11:41.594Z,10.47
2018-07-17T06:14:12.719Z,10.17
2018-07-17T06:16:43.742Z,10.50
2018-07-17T06:19:15.079Z,10.93
2018-07-17T06:21:46.618Z,10.20
2018-07-17T06:24:17.977Z,10.37
2018-07-17T06:26:49.237Z,10.43
2018-07-17T06:29:20.329Z,10.97
2018-07-17T06:31:51.639Z,11.30
2018-07-17T06:34:23.019Z,11.97
2018-07-17T06:36:54.216Z,10.97
2018-07-17T06:39:26.301Z,10.13
2018-07-17T06:41:57.968Z,10.83
2018-07-17T06:44:29.309Z,9.97
2018-07-17T06:47:00.715Z,9.57
2018-07-17T06:49:32.507Z,10.13
2018-07-17T06:52:04.020Z,10.40
2018-07-17T06:54:35.580Z,9.33
2018-07-17T06:57:06.964Z,9.93
2018-07-17T06:59:38.138Z,9.47
2018-07-17T07:02:09.355Z,9.90
2018-07-17T07:04:40.435Z,9.10
2018-07-17T07:07:11.582Z,9.30
2018-07-17T07:09:42.762Z,9.57
2018-07-17T07:12:13.871Z,9.37
2018-07-17T07:14:45.110Z,8.50
2018-07-17T07:17:16.363Z,8.70
2018-07-17T07:19:47.357Z,8.80
2018-07-17T07:22:18.364Z,8.53
2018-07-17T07:24:49.458Z,8.50
2018-07-17T07:27:20.615Z,8.40
2018-07-17T07:29:51.847Z,8.67
2018-07-17T07:32:23.029Z,8.27
2018-07-17T07:34:54.061Z,8.30
2018-07-17T07:37:25.344Z,8.10
2018-07-17T07:39:57.084Z,8.23
2018-07-17T07:42:28.729Z,7.70
2018-07-17T07:45:01.590Z,8.43
2018-07-17T07:47:32.932Z,8.47
2018-07-17T07:50:04.287Z,8.47
2018-07-17T07:52:35.490Z,8.07
2018-07-17T07:55:07.192Z,7.73
2018-07-17T07:57:38.399Z,6.77
2018-07-17T08:00:09.870Z,7.80
2018-07-17T08:02:41.364Z,7.63
2018-07-17T08:05:12.628Z,7.60
2018-07-17T08:07:43.834Z,7.17
2018-07-17T08:10:15.069Z,7.10
2018-07-17T08:12:46.487Z,6.80
2018-07-17T08:15:17.503Z,7.30
2018-07-17T08:17:48.885Z,5.77
2018-07-17T08:20:20.105Z,6.17
2018-07-17T08:22:51.417Z,5.67
2018-07-17T08:25:22.566Z,5.47
2018-07-17T08:27:52.914Z,6.00
2018-07-17T08:30:23.809Z,6.13
2018-07-17T08:32:55.058Z,6.33
2018-07-17T08:35:26.191Z,6.50
2018-07-17T08:37:58.110Z,6.63
2018-07-17T08:40:29.592Z,6.07
2018-07-17T08:43:01.134Z,6.13
2018-07-17T08:45:32.762Z,5.90
2018-07-17T08:48:04.010Z,5.67
2018-07-17T08:50:35.113Z,5.53
2018-07-17T08:53:05.681Z,5.60
2018-07-17T08:55:36.562Z,5.00
2018-07-17T08:58:08.301Z,5.80
2018-07-17T09:00:39.465Z,5.57
2018-07-17T09:03:10.713Z,5.40
2018-07-17T09:05:41.807Z,5.53
2018-07-17T09:08:13.150Z,4.90
2018-07-17T09:10:44.405Z,5.00
2018-07-17T09:13:15.645Z,4.87
2018-07-17T09:15:46.685Z,4.80
2018-07-17T09:18:16.959Z,4.60
2018-07-17T09:20:47.873Z,4.50
2018-07-17T09:23:19.014Z,4.70
2018-07-17T09:25:50.103Z,4.87
2018-07-17T09:28:21.288Z,4.80
2018-07-17T09:30:57.470Z,4.62
2018-07-17T09:33:29.746Z,4.62
2018-07-17T09:36:01.590Z,5.12
2018-07-17T09:38:33.633Z,4.25
2018-07-17T09:41:04.913Z,4.28
2018-07-17T09:43:36.936Z,4.12
2018-07-17T09:46:08.319Z,3.55
2018-07-17T09:48:39.524Z,3.75
2018-07-17T09:51:10.742Z,4.30
2018-07-17T09:53:41.690Z,3.90
2018-07-17T09:56:12.053Z,4.33
2018-07-17T09:58:43.071Z,3.77
2018-07-17T10:01:19.045Z,3.92
2018-07-17T10:03:50.209Z,3.62
2018-07-17T10:06:21.447Z,3.72
2018-07-17T10:08:52.537Z,3.92
2018-07-17T10:11:23.551Z,3.58
2018-07-17T10:13:55.630Z,3.60
2018-07-17T10:16:26.947Z,3.87
2018-07-17T10:18:58.626Z,4.15
2018-07-17T10:21:30.184Z,3.72
2018-07-17T10:24:01.953Z,3.87
2018-07-17T10:26:33.192Z,3.95
2018-07-17T10:29:05.100Z,3.80
2018-07-17T10:31:36.022Z,4.03
2018-07-17T10:34:07.158Z,3.72
2018-07-17T10:36:38.185Z,3.80
2018-07-17T10:39:10.413Z,4.22
2018-07-17T10:41:41.694Z,3.58
2018-07-17T10:44:12.637Z,3.70
2018-07-17T10:46:43.877Z,4.10
2018-07-17T10:49:14.857Z,4.10
2018-07-17T10:51:46.143Z,4.00
2018-07-17T10:54:17.258Z,3.85
2018-07-17T10:56:48.712Z,3.85
2018-07-17T10:59:20.062Z,4.05
2018-07-17T11:01:51.087Z,4.33
2018-07-17T11:04:22.119Z,3.80
2018-07-17T11:06:53.278Z,3.98
2018-07-17T11:09:24.899Z,3.67
2018-07-17T11:11:56.692Z,4.85
2018-07-17T11:14:27.712Z,4.05
2018-07-17T11:16:59.208Z,3.72
2018-07-17T11:19:30.246Z,3.85
2018-07-17T11:22:02.521Z,3.10
2018-07-17T11:24:34.358Z,3.22
2018-07-17T11:27:05.690Z,3.40
2018-07-17T11:29:36.995Z,3.22
2018-07-17T11:32:08.091Z,3.30
2018-07-17T11:34:39.291Z,3.27
2018-07-17T11:37:10.201Z,3.10
2018-07-17T11:39:41.200Z,3.27
2018-07-17T11:42:12.283Z,3.42
2018-07-17T11:44:43.501Z,3.30
2018-07-17T11:47:14.609Z,3.25
2018-07-17T11:49:45.760Z,3.33
2018-07-17T11:52:17.043Z,3.35
2018-07-17T11:54:48.084Z,3.10
2018-07-17T11:57:19.223Z,2.70
2018-07-17T11:59:50.186Z,2.72
2018-07-17T12:02:21.179Z,2.70
2018-07-17T12:04:52.387Z,2.90
2018-07-17T12:07:23.802Z,2.70
2018-07-17T12:09:55.488Z,2.65
2018-07-17T12:12:27.216Z,3.00
2018-07-17T12:14:59.212Z,2.50
2018-07-17T12:17:31.453Z,2.77
2018-07-17T12:20:04.224Z,2.50
2018-07-17T12:22:35.871Z,2.50
2018-07-17T12:25:07.007Z,2.55
2018-07-17T12:27:38.477Z,2.62
2018-07-17T12:30:09.880Z,2.85
2018-07-17T12:32:41.116Z,2.50
2018-07-17T12:35:12.416Z,2.45
2018-07-17T12:37:43.379Z,2.27
2018-07-17T12:40:14.651Z,2.37
2018-07-17T12:42:45.897Z,2.47
2018-07-17T12:45:17.064Z,2.47
2018-07-17T12:47:48.039Z,2.40
2018-07-17T12:50:19.210Z,2.45
2018-07-17T12:52:50.255Z,2.45
2018-07-17T12:55:20.673Z,2.87
2018-07-17T12:57:52.154Z,2.67
2018-07-17T13:00:23.435Z,3.00
2018-07-17T13:02:55.856Z,2.50
2018-07-17T13:05:27.289Z,2.83
2018-07-17T13:07:59.142Z,2.70
2018-07-17T13:10:31.160Z,2.30
2018-07-17T13:13:03.118Z,2.70
2018-07-17T13:15:34.938Z,2.75
2018-07-17T13:18:06.147Z,2.62
2018-07-17T13:20:37.851Z,2.52
2018-07-17T13:23:08.995Z,2.47
2018-07-17T13:25:40.432Z,2.42
2018-07-17T13:28:11.596Z,2.40
2018-07-17T13:30:42.798Z,2.50
2018-07-17T13:33:13.879Z,2.77
2018-07-17T13:35:45.086Z,2.60
2018-07-17T13:38:16.701Z,2.30
2018-07-17T13:40:47.830Z,2.60
2018-07-17T13:43:19.258Z,2.40
2018-07-17T13:45:50.428Z,2.30
2018-07-17T13:48:21.419Z,2.30
2018-07-17T13:50:52.496Z,2.65
2018-07-17T13:53:23.590Z,2.40
2018-07-17T13:55:54.787Z,2.50
2018-07-17T13:58:26.196Z,2.75
2018-07-17T14:00:57.739Z,2.50
2018-07-17T14:03:29.480Z,2.42
2018-07-17T14:06:01.657Z,2.27
2018-07-17T14:08:32.987Z,2.35
2018-07-17T14:11:04.095Z,2.72
2018-07-17T14:13:35.046Z,2.40
2018-07-17T14:16:05.950Z,2.40
2018-07-17T14:18:37.744Z,2.20
2018-07-17T14:21:08.845Z,2.50
2018-07-17T14:23:39.917Z,2.55
2018-07-17T14:26:11.416Z,2.60
2018-07-17T14:28:42.454Z,2.58
2018-07-17T14:31:13.164Z,2.80
2018-07-17T14:33:44.107Z,2.70
2018-07-17T14:36:15.059Z,2.87
2018-07-17T14:38:46.039Z,2.90
2018-07-17T14:41:16.514Z,2.75
2018-07-17T14:43:47.335Z,2.60
2018-07-17T14:46:18.467Z,2.90
2018-07-17T14:48:49.649Z,3.00
2018-07-17T14:51:20.792Z,2.65
2018-07-17T14:53:51.818Z,2.50
2018-07-17T14:56:22.393Z,2.75
2018-07-17T14:58:53.276Z,2.87
2018-07-17T15:01:24.778Z,2.90
2018-07-17T15:03:56.015Z,2.60
2018-07-17T15:06:27.553Z,2.90
2018-07-17T15:08:59.149Z,2.95
2018-07-17T15:11:30.614Z,2.70
2018-07-17T15:14:02.555Z,2.90
2018-07-17T15:16:33.668Z,2.90
2018-07-17T15:19:05.119Z,2.80
2018-07-17T15:21:36.227Z,2.90
2018-07-17T15:24:07.366Z,3.12
2018-07-17T15:26:38.529Z,2.75
2018-07-17T15:29:09.912Z,2.98
2018-07-17T15:31:41.121Z,2.70
2018-07-17T15:34:12.429Z,2.70
2018-07-17T15:36:43.594Z,2.67
2018-07-17T15:39:14.718Z,2.50
2018-07-17T15:41:45.762Z,2.55
2018-07-17T15:44:16.836Z,2.30
2018-07-17T15:46:48.304Z,2.40
2018-07-17T15:49:19.702Z,2.20
2018-07-17T15:51:50.908Z,2.30
2018-07-17T15:54:22.043Z,2.25
2018-07-17T15:56:53.397Z,2.37
2018-07-17T15:59:24.656Z,2.90
2018-07-17T16:01:55.852Z,2.60
2018-07-17T16:04:28.158Z,2.90
2018-07-17T16:06:58.819Z,2.45
2018-07-17T16:09:29.726Z,2.65
2018-07-17T16:12:00.765Z,2.47
2018-07-17T16:14:32.324Z,2.60
2018-07-17T16:17:04.658Z,2.90
2018-07-17T16:19:36.122Z,2.67
2018-07-17T16:22:07.703Z,3.02
2018-07-17T16:27:31.738Z,3.00
2018-07-17T16:30:01.918Z,2.90
2018-07-17T16:32:32.327Z,2.87
2018-07-17T16:35:04.957Z,3.05
2018-07-17T16:37:35.674Z,3.10
2018-07-17T16:40:07.920Z,3.08
2018-07-17T16:42:38.679Z,2.85
2018-07-17T16:45:09.435Z,2.85
2018-07-17T16:47:40.033Z,2.70
2018-07-17T16:50:10.734Z,2.77
2018-07-17T16:52:41.477Z,2.83
2018-07-17T16:55:13.451Z,2.90
2018-07-17T16:57:43.537Z,2.70
2018-07-17T17:00:13.618Z,2.75
2018-07-17T17:02:44.795Z,2.85
2018-07-17T17:05:15.121Z,2.72
2018-07-17T17:07:45.759Z,2.55
2018-07-17T17:10:16.473Z,3.10
2018-07-17T17:12:47.210Z,2.85
2018-07-17T17:15:17.942Z,2.90
2018-07-17T17:17:48.758Z,2.95
2018-07-17T17:20:19.486Z,2.67
2018-07-17T17:22:49.763Z,2.70
2018-07-17T17:25:20.593Z,2.75
2018-07-17T17:27:51.359Z,2.65
2018-07-17T17:30:22.127Z,2.90
2018-07-17T17:32:53.054Z,2.75
2018-07-17T17:35:23.727Z,2.62
2018-07-17T17:37:54.520Z,2.90
2018-07-17T17:40:25.244Z,3.00
2018-07-17T17:42:56.041Z,3.05
2018-07-17T17:45:27.025Z,3.20
2018-07-17T17:47:57.829Z,2.90
2018-07-17T17:50:28.569Z,3.08
2018-07-17T17:52:59.499Z,2.87
2018-07-17T17:55:30.259Z,3.20
2018-07-17T17:58:01.090Z,2.80
2018-07-17T18:00:31.907Z,2.90
2018-07-17T18:03:02.573Z,2.80
2018-07-17T18:05:33.548Z,3.30
2018-07-17T18:08:04.283Z,3.25
2018-07-17T18:10:35.014Z,3.12
2018-07-17T18:13:06.117Z,3.10
2018-07-17T18:15:36.853Z,3.25
2018-07-17T18:18:07.644Z,3.22
2018-07-17T18:20:38.434Z,3.30
2018-07-17T18:23:09.206Z,3.00
2018-07-17T18:25:39.869Z,3.25
2018-07-17T18:28:10.690Z,3.15
2018-07-17T18:30:41.807Z,3.10
2018-07-17T18:33:12.600Z,3.30
2018-07-17T18:35:43.297Z,3.02
2018-07-17T18:38:13.977Z,3.05
2018-07-17T18:40:44.755Z,3.47
2018-07-17T18:43:15.407Z,3.00
2018-07-17T18:45:46.246Z,3.55
2018-07-17T18:48:20.649Z,3.30
2018-07-17T18:50:51.416Z,3.22
2018-07-17T18:53:22.162Z,2.80
2018-07-17T18:55:52.911Z,3.20
2018-07-17T18:58:23.547Z,3.40
2018-07-17T19:00:54.269Z,3.67
2018-07-17T19:03:25.046Z,3.50
2018-07-17T19:05:55.800Z,3.40
2018-07-17T19:08:26.395Z,3.40
2018-07-17T19:10:57.164Z,3.70
2018-07-17T19:13:27.990Z,3.33
2018-07-17T19:15:58.703Z,3.50
2018-07-17T19:18:29.542Z,3.77
2018-07-17T19:21:00.367Z,3.57
2018-07-17T19:23:30.680Z,3.40
2018-07-17T19:26:17.157Z,3.57
2018-07-17T19:28:47.906Z,3.37
2018-07-17T19:31:18.648Z,3.30
2018-07-17T19:33:49.399Z,3.40
2018-07-17T19:36:20.270Z,3.33
2018-07-17T19:38:51.064Z,3.53
2018-07-17T19:41:21.989Z,3.60
2018-07-17T19:43:52.768Z,3.60
2018-07-17T19:46:23.593Z,3.63
2018-07-17T19:48:54.296Z,3.33
2018-07-17T19:51:25.110Z,3.40
2018-07-17T19:53:55.813Z,3.37
2018-07-17T19:56:31.998Z,3.30
2018-07-17T19:59:02.698Z,3.40
2018-07-17T20:01:33.534Z,3.57
2018-07-17T20:04:04.382Z,3.30
2018-07-17T20:06:35.173Z,3.60
2018-07-17T20:09:08.190Z,3.60
2018-07-17T20:11:50.143Z,3.47
2018-07-17T20:14:21.107Z,3.60
2018-07-17T20:16:51.973Z,3.47
2018-07-17T20:19:22.751Z,3.30
2018-07-17T20:21:53.685Z,3.20
2018-07-17T20:24:25.437Z,3.30
2018-07-17T20:26:56.479Z,3.63
2018-07-17T20:29:27.199Z,3.30
2018-07-17T20:31:58.179Z,3.50
2018-07-17T20:34:29.130Z,3.47
2018-07-17T20:36:59.953Z,3.80
2018-07-17T20:39:30.924Z,3.40
2018-07-17T20:42:01.769Z,3.50
2018-07-17T20:44:33.012Z,3.17
2018-07-17T20:47:03.863Z,3.30
2018-07-17T20:49:34.614Z,3.50
2018-07-17T20:52:05.491Z,3.10
2018-07-17T20:54:36.368Z,3.77
2018-07-17T20:57:07.224Z,3.30
2018-07-17T20:59:38.056Z,3.50
2018-07-17T21:02:24.360Z,3.27
2018-07-17T21:04:55.389Z,3.70
2018-07-17T21:07:26.111Z,3.57
2018-07-17T21:09:56.906Z,3.40
2018-07-17T21:12:27.221Z,3.63
2018-07-17T21:15:02.401Z,3.50
2018-07-17T21:17:33.321Z,3.60
2018-07-17T21:23:20.638Z,3.83
2018-07-17T21:32:22.414Z,4.87
2018-07-17T21:34:53.157Z,3.80
2018-07-17T21:37:36.803Z,3.60
2018-07-17T21:40:07.597Z,3.67
2018-07-17T21:42:38.251Z,3.70
2018-07-17T21:45:09.007Z,4.20
2018-07-17T21:47:39.802Z,4.10
2018-07-17T21:50:10.662Z,4.10
2018-07-17T21:52:41.474Z,4.30
2018-07-17T21:55:12.202Z,4.40
2018-07-17T21:57:42.837Z,4.43
2018-07-17T22:00:13.661Z,4.33
2018-07-17T22:02:44.456Z,4.17
2018-07-17T22:05:15.285Z,4.17
2018-07-17T22:07:46.089Z,4.50
2018-07-17T22:10:16.933Z,4.50
2018-07-17T22:12:47.867Z,4.57
2018-07-17T22:15:18.647Z,4.47
2018-07-17T22:17:49.575Z,4.73
2018-07-17T22:20:20.336Z,4.10
2018-07-17T22:22:50.976Z,4.53
2018-07-17T22:25:21.814Z,4.17
2018-07-17T22:27:52.618Z,4.77
2018-07-17T22:30:23.403Z,4.40
2018-07-17T22:32:54.261Z,4.33
2018-07-17T22:35:25.003Z,4.20
2018-07-17T22:37:55.837Z,4.37
2018-07-17T22:40:26.754Z,4.80
2018-07-17T22:42:57.655Z,4.10
2018-07-17T22:45:28.352Z,4.07
2018-07-17T22:47:58.982Z,4.40
2018-07-17T22:50:29.695Z,4.23
2018-07-17T22:53:00.454Z,4.20
2018-07-17T22:55:31.179Z,4.30
2018-07-17T22:58:01.934Z,4.40
2018-07-17T23:00:32.814Z,4.37
2018-07-17T23:03:03.491Z,4.53
2018-07-17T23:05:33.617Z,4.10
2018-07-17T23:08:03.683Z,4.47
2018-07-17T23:10:34.648Z,4.37
2018-07-17T23:13:05.731Z,4.43
2018-07-17T23:15:36.811Z,4.57
2018-07-17T23:18:07.635Z,4.50
2018-07-17T23:20:38.111Z,4.43
2018-07-17T23:23:08.819Z,4.50
2018-07-17T23:25:39.749Z,4.10
2018-07-17T23:28:10.434Z,4.47
2018-07-17T23:30:41.285Z,4.90
2018-07-17T23:33:12.059Z,4.20
2018-07-17T23:35:42.713Z,4.77
2018-07-17T23:38:13.545Z,4.37
2018-07-17T23:40:44.263Z,4.77
2018-07-17T23:43:14.930Z,4.53
2018-07-17T23:45:45.728Z,4.63
2018-07-17T23:48:22.479Z,4.60
2018-07-17T23:50:53.556Z,4.27
2018-07-17T23:53:23.649Z,4.37
2018-07-17T23:55:53.758Z,4.07
2018-07-17T23:58:23.824Z,4.47
